Time;durP1;ratioP1;P1;durP2;ratioP2;P2;SDS_P1;SDS_P2;PMS_P1;PMS_P2;Temp;Humidity;BMP_temperature;BMP_pressure;BME280_temperature;BME280_humidity;BME280_pressure;Samples;Min_cycle;Max_cycle;Signal;HPM_P1;HPM_P2
2024/01/25 00:00:28;;;;;;;;;6.67;6.67;;;;;-144.62;100.00;60556.56;5041505;28;45888;-77
2024/01/25 00:02:53;;;;;;;;;9.00;9.00;;;;;-144.62;100.00;60556.56;5027898;28;45344;-77
2024/01/25 00:05:18;;;;;;;;;9.00;9.00;;;;;-144.62;100.00;60556.56;5040205;28;45356;-77
2024/01/25 00:07:50;;;;;;;;;6.00;5.00;;;;;-144.62;100.00;60556.56;5040307;28;45431;-77
2024/01/25 00:10:17;;;;;;;;;7.33;5.33;;;;;-144.62;100.00;60556.56;5041239;28;46386;-77
2024/01/25 00:12:43;;;;;;;;;12.00;8.33;;;;;-144.62;100.00;60556.56;5040944;28;45473;-77
2024/01/25 00:15:12;;;;;;;;;10.33;10.33;;;;;-144.62;100.00;60556.56;5041162;28;45374;-77
2024/01/25 00:17:38;;;;;;;;;8.67;5.00;;;;;-144.62;100.00;60556.56;5041572;28;45255;-77
2024/01/25 00:20:04;;;;;;;;;15.33;5.00;;;;;-144.62;100.00;60556.56;5041328;28;45258;-75
2024/01/25 00:22:29;;;;;;;;;5.33;5.33;;;;;-144.62;100.00;60556.56;5040981;28;45292;-75
2024/01/25 00:24:55;;;;;;;;;10.67;4.33;;;;;-144.62;100.00;60556.56;5041338;28;45227;-77
2024/01/25 00:27:20;;;;;;;;;5.67;4.00;;;;;-144.62;100.00;60556.56;5051097;28;45243;-76
2024/01/25 00:29:45;;;;;;;;;4.67;4.67;;;;;-144.62;100.00;60556.56;5020638;28;53988;-76
2024/01/25 00:32:10;;;;;;;;;3.67;3.67;;;;;-144.62;100.00;60556.56;5020844;28;51025;-76
2024/01/25 00:34:36;;;;;;;;;10.00;5.00;;;;;-144.62;100.00;60556.56;5021241;28;45525;-76
2024/01/25 00:37:02;;;;;;;;;5.00;3.67;;;;;-144.62;100.00;60556.56;5021219;28;45392;-76
2024/01/25 00:39:27;;;;;;;;;6.67;5.00;;;;;-144.62;100.00;60556.56;5021126;28;45433;-75
2024/01/25 00:42:04;;;;;;;;;8.00;4.00;;;;;-144.62;100.00;60556.56;5020773;28;45301;-76
2024/01/25 00:44:30;;;;;;;;;8.67;4.33;;;;;-144.62;100.00;60556.56;5020768;28;45247;-76
2024/01/25 00:46:55;;;;;;;;;2.00;0.67;;;;;-144.62;100.00;60556.56;5019997;28;45274;-76
2024/01/25 00:49:21;;;;;;;;;3.67;3.67;;;;;-144.62;100.00;60556.56;5020779;28;45483;-77
2024/01/25 00:51:47;;;;;;;;;5.00;4.00;;;;;-144.62;100.00;60556.56;5038367;28;45241;-77
2024/01/25 00:54:16;;;;;;;;;5.00;3.00;;;;;-144.62;100.00;60556.56;5041104;28;45283;-77
2024/01/25 00:56:42;;;;;;;;;6.67;5.00;;;;;-144.62;100.00;60556.56;5041171;27;45362;-77
2024/01/25 00:59:08;;;;;;;;;8.33;4.33;;;;;-144.62;100.00;60556.56;5040440;28;46726;-77
2024/01/25 01:01:33;;;;;;;;;6.67;3.33;;;;;-144.62;100.00;60556.56;5040729;28;45339;-77
2024/01/25 01:03:59;;;;;;;;;6.00;3.00;;;;;-144.62;100.00;60556.56;5040849;28;45342;-77
2024/01/25 01:06:26;;;;;;;;;4.33;3.00;;;;;-144.62;100.00;60556.56;5039719;28;45324;-77
2024/01/25 01:08:52;;;;;;;;;4.00;4.00;;;;;-144.62;100.00;60556.56;5040622;28;45302;-76
2024/01/25 01:11:18;;;;;;;;;7.33;3.33;;;;;-144.62;100.00;60556.56;5040723;28;45339;-76
2024/01/25 01:13:43;;;;;;;;;5.00;5.00;;;;;-144.62;100.00;60556.56;5041210;28;45531;-76
2024/01/25 01:16:10;;;;;;;;;6.00;3.00;;;;;-144.62;100.00;60556.56;5040165;27;45224;-76
2024/01/25 01:18:36;;;;;;;;;8.67;5.00;;;;;-144.62;100.00;60556.56;5040529;28;46282;-76
2024/01/25 01:21:01;;;;;;;;;4.00;4.00;;;;;-144.62;100.00;60556.56;5040047;27;45357;-76
2024/01/25 01:23:27;;;;;;;;;8.00;5.00;;;;;-144.62;100.00;60556.56;5038869;28;45467;-76
2024/01/25 01:25:52;;;;;;;;;3.67;3.00;;;;;-144.62;100.00;60556.56;5040711;28;45271;-76
2024/01/25 01:28:17;;;;;;;;;4.67;3.00;;;;;-144.62;100.00;60556.56;5040189;28;45342;-77
2024/01/25 01:30:43;;;;;;;;;6.00;4.00;;;;;-144.62;100.00;60556.56;5040443;28;45322;-76
2024/01/25 01:33:09;;;;;;;;;7.67;4.00;;;;;-144.62;100.00;60556.56;5040709;28;45310;-77
2024/01/25 01:35:34;;;;;;;;;5.67;4.00;;;;;-144.62;100.00;60556.56;5040592;28;46032;-77
2024/01/25 01:37:59;;;;;;;;;7.67;4.67;;;;;-144.62;100.00;60556.56;5040220;28;45346;-76
2024/01/25 01:40:25;;;;;;;;;1.67;1.67;;;;;-144.62;100.00;60556.56;5038751;28;48139;-76
2024/01/25 01:42:50;;;;;;;;;3.00;3.00;;;;;-144.62;100.00;60556.56;5040086;28;45443;-76
2024/01/25 01:45:15;;;;;;;;;9.00;5.00;;;;;-144.62;100.00;60556.56;5040668;28;45426;-76
2024/01/25 01:47:41;;;;;;;;;5.00;3.33;;;;;-144.62;100.00;60556.56;5040465;28;45322;-77
2024/01/25 01:50:09;;;;;;;;;5.00;3.00;;;;;-144.62;100.00;60556.56;5040030;28;45242;-76
2024/01/25 01:52:34;;;;;;;;;7.33;3.33;;;;;-144.62;100.00;60556.56;5038494;28;45474;-76
2024/01/25 01:55:00;;;;;;;;;3.00;3.00;;;;;-144.62;100.00;60556.56;5035832;27;45261;-76
2024/01/25 01:57:26;;;;;;;;;7.33;4.33;;;;;-144.62;100.00;60556.56;5031087;27;45593;-76
2024/01/25 01:59:52;;;;;;;;;5.00;4.00;;;;;-144.62;100.00;60556.56;5039750;28;45272;-77
2024/01/25 02:02:17;;;;;;;;;4.00;2.67;;;;;-144.62;100.00;60556.56;5040004;28;45370;-77
2024/01/25 02:04:43;;;;;;;;;4.67;2.00;;;;;-144.62;100.00;60556.56;5040985;28;45266;-77
2024/01/25 02:07:09;;;;;;;;;5.00;3.00;;;;;-144.62;100.00;60556.56;5039966;28;46265;-77
2024/01/25 02:09:34;;;;;;;;;7.00;4.67;;;;;-144.62;100.00;60556.56;5039599;28;45326;-77
2024/01/25 02:12:03;;;;;;;;;9.67;6.00;;;;;-144.62;100.00;60556.56;5038749;28;45309;-77
2024/01/25 02:14:30;;;;;;;;;5.67;3.33;;;;;-144.62;100.00;60556.56;5039890;28;45513;-77
2024/01/25 02:16:56;;;;;;;;;4.33;3.67;;;;;-144.62;100.00;60556.56;5038233;28;47161;-77
2024/01/25 02:19:21;;;;;;;;;6.67;4.00;;;;;-144.62;100.00;60556.56;5039417;28;45392;-77
2024/01/25 02:21:48;;;;;;;;;7.00;4.33;;;;;-144.62;100.00;60556.56;5039795;28;45471;-77
2024/01/25 02:24:13;;;;;;;;;8.00;5.00;;;;;-144.62;100.00;60556.56;5040022;28;45319;-77
2024/01/25 02:26:38;;;;;;;;;4.67;3.00;;;;;-144.62;100.00;60556.56;5047974;28;47678;-77
2024/01/25 02:29:04;;;;;;;;;6.00;3.67;;;;;-144.62;100.00;60556.56;5042186;28;45356;-77
2024/01/25 02:31:30;;;;;;;;;10.00;6.00;;;;;-144.62;100.00;60556.56;5041303;28;45344;-77
2024/01/25 02:33:55;;;;;;;;;7.67;4.67;;;;;-144.62;100.00;60556.56;5042800;28;45412;-77
2024/01/25 02:36:22;;;;;;;;;6.00;6.00;;;;;-144.62;100.00;60556.56;5042412;28;45473;-77
2024/01/25 02:38:47;;;;;;;;;4.67;4.33;;;;;-144.62;100.00;60556.56;5040988;28;45440;-77
2024/01/25 02:41:13;;;;;;;;;3.00;3.00;;;;;-144.62;100.00;60556.56;5041259;28;45271;-77
2024/01/25 02:43:38;;;;;;;;;7.00;5.67;;;;;-144.62;100.00;60556.56;5042564;28;45299;-77
2024/01/25 02:46:03;;;;;;;;;5.00;4.00;;;;;-144.62;100.00;60556.56;5042480;28;45391;-77
2024/01/25 02:48:29;;;;;;;;;12.33;7.33;;;;;-144.62;100.00;60556.56;5057769;28;45492;-77
2024/01/25 02:50:54;;;;;;;;;8.33;7.00;;;;;-144.62;100.00;60556.56;5042778;28;45293;-77
2024/01/25 02:53:19;;;;;;;;;9.67;7.33;;;;;-144.62;100.00;60556.56;5042810;28;45243;-77
2024/01/25 02:55:45;;;;;;;;;8.00;5.67;;;;;-144.62;100.00;60556.56;5042283;28;45617;-77
2024/01/25 02:58:10;;;;;;;;;12.33;9.67;;;;;-144.62;100.00;60556.56;5041903;27;45279;-77
2024/01/25 03:00:35;;;;;;;;;6.67;5.00;;;;;-144.62;100.00;60556.56;5042904;28;45280;-77
2024/01/25 03:03:01;;;;;;;;;9.33;6.33;;;;;-144.62;100.00;60556.56;5042638;28;45742;-76
2024/01/25 03:05:26;;;;;;;;;10.00;4.67;;;;;-144.62;100.00;60556.56;5042289;28;45398;-77
2024/01/25 03:07:51;;;;;;;;;7.00;4.00;;;;;-144.62;100.00;60556.56;5041785;28;49365;-77
2024/01/25 03:10:16;;;;;;;;;7.00;5.33;;;;;-144.62;100.00;60556.56;5052377;28;45368;-76
2024/01/25 03:12:42;;;;;;;;;10.33;6.00;;;;;-144.62;100.00;60556.56;5031608;28;45469;-77
2024/01/25 03:15:09;;;;;;;;;8.00;5.67;;;;;-144.62;100.00;60556.56;5040222;28;47147;-76
2024/01/25 03:17:34;;;;;;;;;7.33;6.00;;;;;-144.62;100.00;60556.56;5040552;28;45326;-77
2024/01/25 03:20:00;;;;;;;;;9.67;6.00;;;;;-144.62;100.00;60556.56;5042278;28;45293;-76
2024/01/25 03:22:25;;;;;;;;;8.67;6.00;;;;;-144.62;100.00;60556.56;5042008;28;45352;-76
2024/01/25 03:24:50;;;;;;;;;4.00;4.00;;;;;-144.62;100.00;60556.56;5034280;28;47500;-77
2024/01/25 03:27:16;;;;;;;;;4.33;4.33;;;;;-144.62;100.00;60556.56;5041891;28;45323;-77
2024/01/25 03:29:43;;;;;;;;;4.00;4.00;;;;;-144.62;100.00;60556.56;5042070;28;45386;-77
2024/01/25 03:32:09;;;;;;;;;6.00;4.00;;;;;-144.62;100.00;60556.56;5041031;28;45395;-74
2024/01/25 03:34:34;;;;;;;;;4.33;3.33;;;;;-144.62;100.00;60556.56;5041782;28;45375;-74
2024/01/25 03:36:59;;;;;;;;;7.00;3.00;;;;;-144.62;100.00;60556.56;5041609;28;45390;-74
2024/01/25 03:39:25;;;;;;;;;2.33;2.00;;;;;-144.62;100.00;60556.56;5041813;28;45159;-77
2024/01/25 03:41:50;;;;;;;;;6.33;5.00;;;;;-144.62;100.00;60556.56;5040782;27;45301;-77
2024/01/25 03:44:15;;;;;;;;;3.67;3.67;;;;;-144.62;100.00;60556.56;5041448;28;52714;-77
2024/01/25 03:46:40;;;;;;;;;5.67;4.00;;;;;-144.62;100.00;60556.56;5040378;28;45311;-76
2024/01/25 03:49:06;;;;;;;;;4.00;4.00;;;;;-144.62;100.00;60556.56;5041973;28;45171;-77
2024/01/25 03:51:31;;;;;;;;;5.33;3.00;;;;;-144.62;100.00;60556.56;5041986;28;45313;-77
2024/01/25 03:53:58;;;;;;;;;7.00;3.33;;;;;-144.62;100.00;60556.56;5041792;28;45603;-77
2024/01/25 03:56:23;;;;;;;;;4.33;4.33;;;;;-144.62;100.00;60556.56;5041496;27;45465;-76
2024/01/25 03:58:50;;;;;;;;;3.00;3.00;;;;;-144.62;100.00;60556.56;5051064;28;45400;-74
2024/01/25 04:01:15;;;;;;;;;3.00;3.00;;;;;-144.62;100.00;60556.56;5041913;28;45623;-76
2024/01/25 04:03:41;;;;;;;;;5.67;3.67;;;;;-144.62;100.00;60556.56;5041432;28;49829;-76
2024/01/25 04:06:06;;;;;;;;;3.67;2.00;;;;;-144.62;100.00;60556.56;5039865;28;45336;-77
2024/01/25 04:08:32;;;;;;;;;6.00;3.00;;;;;-144.62;100.00;60556.56;5040024;28;45472;-74
2024/01/25 04:10:57;;;;;;;;;5.00;2.00;;;;;-144.62;100.00;60556.56;5041990;28;45385;-74
2024/01/25 04:13:22;;;;;;;;;3.33;3.33;;;;;-144.62;100.00;60556.56;5039795;28;46479;-74
2024/01/25 04:15:47;;;;;;;;;7.33;4.00;;;;;-144.62;100.00;60556.56;5041275;28;45317;-74
2024/01/25 04:18:13;;;;;;;;;5.00;2.33;;;;;-144.62;100.00;60556.56;5040124;28;45328;-74
2024/01/25 04:20:39;;;;;;;;;5.00;3.33;;;;;-144.62;100.00;60556.56;5040374;28;45297;-75
2024/01/25 04:23:04;;;;;;;;;2.67;1.00;;;;;-144.62;100.00;60556.56;5041215;28;46678;-75
2024/01/25 04:25:30;;;;;;;;;1.00;1.00;;;;;-144.62;100.00;60556.56;5039210;28;45229;-74
2024/01/25 04:27:55;;;;;;;;;5.00;4.00;;;;;-144.62;100.00;60556.56;5041118;28;45287;-74
2024/01/25 04:30:20;;;;;;;;;5.67;5.33;;;;;-144.62;100.00;60556.56;5040342;28;45275;-74
2024/01/25 04:32:45;;;;;;;;;4.67;4.00;;;;;-144.62;100.00;60556.56;5041093;28;46435;-76
2024/01/25 04:35:11;;;;;;;;;6.67;4.67;;;;;-144.62;100.00;60556.56;5040739;28;45242;-76
2024/01/25 04:37:36;;;;;;;;;6.67;4.33;;;;;-144.62;100.00;60556.56;5041262;28;45310;-77
2024/01/25 04:40:02;;;;;;;;;6.67;6.00;;;;;-144.62;100.00;60556.56;5041594;28;45293;-77
2024/01/25 04:42:28;;;;;;;;;8.33;4.33;;;;;-144.62;100.00;60556.56;5041029;28;45643;-77
2024/01/25 04:44:53;;;;;;;;;7.67;5.00;;;;;-144.62;100.00;60556.56;5040515;28;45307;-77
2024/01/25 04:47:19;;;;;;;;;7.00;3.67;;;;;-144.62;100.00;60556.56;5041252;28;45306;-77
2024/01/25 04:49:44;;;;;;;;;9.33;5.33;;;;;-144.62;100.00;60556.56;5039104;28;45276;-77
2024/01/25 04:52:09;;;;;;;;;6.33;2.00;;;;;-144.62;100.00;60556.56;5040742;28;45852;-76
2024/01/25 04:54:35;;;;;;;;;8.00;5.00;;;;;-144.62;100.00;60556.56;5040595;28;48664;-75
2024/01/25 04:57:00;;;;;;;;;3.67;3.67;;;;;-144.62;100.00;60556.56;5041054;27;45362;-74
2024/01/25 04:59:26;;;;;;;;;5.67;5.67;;;;;-144.62;100.00;60556.56;5039510;28;45435;-74
2024/01/25 05:01:53;;;;;;;;;6.00;6.00;;;;;-144.62;100.00;60556.56;5040372;28;46365;-77
2024/01/25 05:04:19;;;;;;;;;9.33;7.33;;;;;-144.62;100.00;60556.56;5040206;28;45216;-77
2024/01/25 05:06:44;;;;;;;;;5.33;4.67;;;;;-144.62;100.00;60556.56;5040383;28;45260;-76
2024/01/25 05:09:09;;;;;;;;;5.67;5.67;;;;;-144.62;100.00;60556.56;5040983;28;45174;-77
2024/01/25 05:11:41;;;;;;;;;8.33;7.33;;;;;-144.62;100.00;60556.56;5039158;28;46078;-76
2024/01/25 05:14:07;;;;;;;;;10.33;8.00;;;;;-144.62;100.00;60556.56;5038536;28;45890;-76
2024/01/25 05:16:33;;;;;;;;;8.00;6.00;;;;;-144.62;100.00;60556.56;5039068;28;45390;-73
2024/01/25 05:18:58;;;;;;;;;5.33;5.33;;;;;-144.62;100.00;60556.56;5039538;28;45425;-75
2024/01/25 05:21:23;;;;;;;;;14.00;10.00;;;;;-144.62;100.00;60556.56;5038813;28;47228;-75
2024/01/25 05:23:49;;;;;;;;;9.67;8.33;;;;;-144.62;100.00;60556.56;5040083;28;45284;-74
2024/01/25 05:26:15;;;;;;;;;12.00;8.33;;;;;-144.62;100.00;60556.56;5040120;28;45359;-75
2024/01/25 05:28:41;;;;;;;;;9.00;8.00;;;;;-144.62;100.00;60556.56;5039881;28;45232;-74
2024/01/25 05:31:12;;;;;;;;;12.00;11.00;;;;;-144.62;100.00;60556.56;5039599;28;45663;-74
2024/01/25 05:33:37;;;;;;;;;11.33;11.33;;;;;-144.62;100.00;60556.56;5039024;28;45147;-75
2024/01/25 05:36:03;;;;;;;;;8.67;8.33;;;;;-144.62;100.00;60556.56;5039051;28;45271;-76
2024/01/25 05:38:28;;;;;;;;;17.00;13.00;;;;;-144.62;100.00;60556.56;5039724;28;45200;-76
2024/01/25 05:40:54;;;;;;;;;13.00;10.00;;;;;-144.62;100.00;60556.56;5038919;28;62204;-76
2024/01/25 05:43:19;;;;;;;;;15.33;13.67;;;;;-144.62;100.00;60556.56;5037566;28;45380;-76
2024/01/25 05:45:45;;;;;;;;;17.67;14.00;;;;;-144.62;100.00;60556.56;5039513;28;45299;-75
2024/01/25 05:48:10;;;;;;;;;17.33;13.67;;;;;-144.62;100.00;60556.56;5039754;28;45272;-76
2024/01/25 05:50:36;;;;;;;;;18.33;12.33;;;;;-144.62;100.00;60556.56;5037883;28;46915;-75
2024/01/25 05:53:01;;;;;;;;;12.00;12.00;;;;;-144.62;100.00;60556.56;5038788;28;45395;-75
2024/01/25 05:55:26;;;;;;;;;18.33;15.67;;;;;-144.62;100.00;60556.56;5039291;28;45509;-76
2024/01/25 05:57:51;;;;;;;;;21.33;12.67;;;;;-144.62;100.00;60556.56;5038500;27;45246;-75
2024/01/25 06:00:17;;;;;;;;;16.00;15.00;;;;;-144.62;100.00;60556.56;5039020;28;45439;-76
2024/01/25 06:02:43;;;;;;;;;11.33;10.33;;;;;-144.62;100.00;60556.56;5036882;28;45451;-76
2024/01/25 06:05:09;;;;;;;;;13.33;11.67;;;;;-144.62;100.00;60556.56;5039223;28;45528;-76
2024/01/25 06:07:34;;;;;;;;;20.33;18.67;;;;;-144.62;100.00;60556.56;5054401;28;45481;-76
2024/01/25 06:09:59;;;;;;;;;21.00;18.00;;;;;-144.62;100.00;60556.56;5037976;28;50180;-76
2024/01/25 06:12:24;;;;;;;;;16.00;12.00;;;;;-144.62;100.00;60556.56;5036260;28;45355;-76
2024/01/25 06:14:52;;;;;;;;;18.33;16.00;;;;;-144.62;100.00;60556.56;5031418;28;45539;-76
2024/01/25 06:17:17;;;;;;;;;13.67;12.00;;;;;-144.62;100.00;60556.56;5033651;28;45403;-76
2024/01/25 06:19:42;;;;;;;;;15.33;14.00;;;;;-144.62;100.00;60556.56;5038340;28;46315;-76
2024/01/25 06:22:08;;;;;;;;;14.33;14.00;;;;;-144.62;100.00;60556.56;5038488;28;45218;-76
2024/01/25 06:24:33;;;;;;;;;12.00;12.00;;;;;-144.62;100.00;60556.56;5037381;28;45395;-76
2024/01/25 06:26:59;;;;;;;;;14.33;12.33;;;;;-144.62;100.00;60556.56;5038825;28;45238;-76
2024/01/25 06:29:24;;;;;;;;;14.33;12.67;;;;;-144.62;100.00;60556.56;5038528;28;46039;-76
2024/01/25 06:31:49;;;;;;;;;14.00;13.67;;;;;-144.62;100.00;60556.56;5038434;28;45252;-76
2024/01/25 06:34:15;;;;;;;;;15.00;14.67;;;;;-144.62;100.00;60556.56;5039143;28;45465;-75
2024/01/25 06:36:40;;;;;;;;;13.33;13.00;;;;;-144.62;100.00;60556.56;5038541;28;45283;-75
2024/01/25 06:39:06;;;;;;;;;16.00;14.00;;;;;-144.62;100.00;60556.56;5036894;28;46627;-76
2024/01/25 06:41:32;;;;;;;;;13.67;13.67;;;;;-144.62;100.00;60556.56;5037819;28;45591;-76
2024/01/25 06:43:57;;;;;;;;;13.67;13.67;;;;;-144.62;100.00;60556.56;5036134;28;45461;-76
2024/01/25 06:46:22;;;;;;;;;14.00;12.00;;;;;-144.62;100.00;60556.56;5037416;28;45313;-77
2024/01/25 06:48:50;;;;;;;;;17.00;13.00;;;;;-144.62;100.00;60556.56;5036657;28;51613;-77
2024/01/25 06:51:15;;;;;;;;;14.67;13.00;;;;;-144.62;100.00;60556.56;5037662;28;45246;-77
2024/01/25 06:53:40;;;;;;;;;17.33;15.00;;;;;-144.62;100.00;60556.56;5054092;28;45351;-78
2024/01/25 06:56:06;;;;;;;;;14.33;12.67;;;;;-144.62;100.00;60556.56;5036825;27;45380;-77
2024/01/25 06:58:32;;;;;;;;;18.00;14.67;;;;;-144.62;100.00;60556.56;5053114;28;46878;-77
2024/01/25 07:00:57;;;;;;;;;18.00;15.00;;;;;-144.62;100.00;60556.56;5037220;28;45338;-78
2024/01/25 07:03:23;;;;;;;;;19.67;17.00;;;;;-144.62;100.00;60556.56;5038214;28;45192;-77
2024/01/25 07:05:48;;;;;;;;;22.00;18.33;;;;;-144.62;100.00;60556.56;5036606;28;45241;-77
2024/01/25 07:08:14;;;;;;;;;26.33;20.00;;;;;-144.62;100.00;60556.56;5052640;28;46583;-77
2024/01/25 07:10:43;;;;;;;;;20.67;19.33;;;;;-144.62;100.00;60556.56;5036663;28;45230;-79
2024/01/25 07:13:09;;;;;;;;;21.67;19.33;;;;;-144.62;100.00;60556.56;5053893;28;45357;-79
2024/01/25 07:15:34;;;;;;;;;27.00;24.00;;;;;-144.62;100.00;60556.56;5041569;28;45612;-78
2024/01/25 07:17:59;;;;;;;;;19.00;16.67;;;;;-144.62;100.00;60556.56;5040582;28;45384;-76
2024/01/25 07:20:25;;;;;;;;;21.00;17.33;;;;;-144.62;100.00;60556.56;5041026;28;44874;-76
2024/01/25 07:22:50;;;;;;;;;22.67;22.33;;;;;-144.62;100.00;60556.56;5040385;28;45319;-76
2024/01/25 07:25:19;;;;;;;;;26.67;23.00;;;;;-144.62;100.00;60556.56;5042833;28;45403;-78
2024/01/25 07:27:45;;;;;;;;;26.00;22.67;;;;;-144.62;100.00;60556.56;5028045;28;45375;-77
2024/01/25 07:30:12;;;;;;;;;24.67;22.67;;;;;-144.62;100.00;60556.56;5041045;28;45315;-79
2024/01/25 07:32:38;;;;;;;;;29.67;26.33;;;;;-144.62;100.00;60556.56;5041110;28;45382;-75
2024/01/25 07:35:04;;;;;;;;;32.67;26.33;;;;;-144.62;100.00;60556.56;5039850;28;45430;-75
2024/01/25 07:37:29;;;;;;;;;31.33;28.00;;;;;-144.62;100.00;60556.56;5039282;28;46344;-77
2024/01/25 07:39:55;;;;;;;;;24.67;19.00;;;;;-144.62;100.00;60556.56;5035550;28;57298;-74
2024/01/25 07:42:20;;;;;;;;;22.00;20.67;;;;;-144.62;100.00;60556.56;5027512;28;45320;-76
2024/01/25 07:44:45;;;;;;;;;24.00;19.33;;;;;-144.62;100.00;60556.56;5040848;28;45258;-75
2024/01/25 07:47:11;;;;;;;;;27.00;25.67;;;;;-144.62;100.00;60556.56;5040004;28;56328;-78
2024/01/25 07:49:36;;;;;;;;;28.67;23.33;;;;;-144.62;100.00;60556.56;5040984;28;45307;-76
2024/01/25 07:52:01;;;;;;;;;28.00;24.00;;;;;-144.62;100.00;60556.56;5040992;28;46087;-75
2024/01/25 07:54:27;;;;;;;;;27.00;22.67;;;;;-144.62;100.00;60556.56;5041123;28;45273;-75
2024/01/25 07:56:52;;;;;;;;;22.67;19.33;;;;;-144.62;100.00;60556.56;5039765;27;45651;-76
2024/01/25 07:59:17;;;;;;;;;32.67;25.33;;;;;-144.62;100.00;60556.56;5040850;28;45310;-76
2024/01/25 08:01:43;;;;;;;;;22.00;18.00;;;;;-144.62;100.00;60556.56;5040253;28;45215;-76
2024/01/25 08:04:08;;;;;;;;;27.67;25.00;;;;;-144.62;100.00;60556.56;5041372;28;45380;-74
2024/01/25 08:06:34;;;;;;;;;31.33;25.33;;;;;-144.62;100.00;60556.56;5056034;28;51971;-76
2024/01/25 08:08:59;;;;;;;;;26.33;22.33;;;;;-144.62;100.00;60556.56;5040761;28;45266;-78
2024/01/25 08:11:25;;;;;;;;;25.00;21.33;;;;;-144.62;100.00;60556.56;5041110;28;45482;-76
2024/01/25 08:13:50;;;;;;;;;25.67;25.67;;;;;-144.62;100.00;60556.56;5040062;28;45258;-74
2024/01/25 08:16:19;;;;;;;;;29.33;27.67;;;;;-144.62;100.00;60556.56;5040533;28;45354;-77
2024/01/25 08:18:45;;;;;;;;;29.33;24.00;;;;;-144.62;100.00;60556.56;5040475;28;45358;-75
2024/01/25 08:21:11;;;;;;;;;22.33;21.00;;;;;-144.62;100.00;60556.56;5040356;28;45484;-76
2024/01/25 08:23:37;;;;;;;;;31.00;26.00;;;;;-144.62;100.00;60556.56;5039804;28;45407;-75
2024/01/25 08:26:02;;;;;;;;;29.33;23.33;;;;;-144.62;100.00;60556.56;5037253;28;55938;-76
2024/01/25 08:28:28;;;;;;;;;26.67;25.33;;;;;-144.62;100.00;60556.56;5038622;28;45373;-77
2024/01/25 08:30:53;;;;;;;;;30.67;23.00;;;;;-144.62;100.00;60556.56;5040719;28;45246;-76
2024/01/25 08:33:18;;;;;;;;;25.67;23.33;;;;;-144.62;100.00;60556.56;5040037;28;45684;-75
2024/01/25 08:35:44;;;;;;;;;22.33;21.33;;;;;-144.62;100.00;60556.56;5039701;28;46260;-75
2024/01/25 08:38:09;;;;;;;;;23.67;21.67;;;;;-144.62;100.00;60556.56;5055926;28;45212;-75
2024/01/25 08:40:34;;;;;;;;;28.33;23.33;;;;;-144.62;100.00;60556.56;5039869;28;45877;-74
2024/01/25 08:43:00;;;;;;;;;29.67;23.33;;;;;-144.62;100.00;60556.56;5039986;28;45139;-74
2024/01/25 08:45:25;;;;;;;;;26.67;24.00;;;;;-144.62;100.00;60556.56;5055690;28;46484;-78
2024/01/25 08:47:52;;;;;;;;;24.33;21.33;;;;;-144.62;100.00;60556.56;5040756;28;45399;-75
2024/01/25 08:50:17;;;;;;;;;21.00;17.33;;;;;-144.62;100.00;60556.56;5039992;28;45390;-78
2024/01/25 08:52:43;;;;;;;;;25.00;20.33;;;;;-144.62;100.00;60556.56;5028457;28;45307;-74
2024/01/25 08:55:09;;;;;;;;;19.00;17.33;;;;;-144.62;100.00;60556.56;5054010;28;47973;-76
2024/01/25 08:57:35;;;;;;;;;14.33;14.00;;;;;-144.62;100.00;60556.56;5034767;27;45270;-75
2024/01/25 09:00:00;;;;;;;;;20.33;18.33;;;;;-144.62;100.00;60556.56;5048956;28;45454;-75
2024/01/25 09:02:29;;;;;;;;;19.00;18.00;;;;;-144.62;100.00;60556.56;5027598;28;45457;-75
2024/01/25 09:04:55;;;;;;;;;16.67;15.00;;;;;-144.62;100.00;60556.56;5038771;28;45358;-75
2024/01/25 09:07:22;;;;;;;;;18.33;18.33;;;;;-144.62;100.00;60556.56;5039470;28;45214;-75
2024/01/25 09:09:47;;;;;;;;;12.33;11.00;;;;;-144.62;100.00;60556.56;5038477;28;45471;-78
2024/01/25 09:12:14;;;;;;;;;48.25;40.50;;;;;-144.62;100.00;60556.56;5040406;28;45568;-75
2024/01/25 09:14:39;;;;;;;;;16.33;16.33;;;;;-144.62;100.00;60556.56;5039212;28;46302;-76
2024/01/25 09:17:05;;;;;;;;;16.00;14.00;;;;;-144.62;100.00;60556.56;5040287;28;45451;-75
2024/01/25 09:19:30;;;;;;;;;12.00;9.67;;;;;-144.62;100.00;60556.56;5039784;28;45292;-75
2024/01/25 09:21:59;;;;;;;;;14.00;12.00;;;;;-144.62;100.00;60556.56;5040228;28;45230;-75
2024/01/25 09:24:25;;;;;;;;;13.67;13.33;;;;;-144.62;100.00;60556.56;5039644;28;45360;-77
2024/01/25 09:26:50;;;;;;;;;18.00;12.33;;;;;-144.62;100.00;60556.56;5039340;28;45231;-75
2024/01/25 09:29:15;;;;;;;;;15.67;12.00;;;;;-144.62;100.00;60556.56;5037494;28;50815;-75
2024/01/25 09:31:41;;;;;;;;;11.33;11.33;;;;;-144.62;100.00;60556.56;5039794;28;45542;-76
2024/01/25 09:34:07;;;;;;;;;13.00;13.00;;;;;-144.62;100.00;60556.56;5054468;28;48396;-74
2024/01/25 09:36:32;;;;;;;;;13.67;11.00;;;;;-144.62;100.00;60556.56;5036876;28;45419;-76
2024/01/25 09:38:57;;;;;;;;;10.67;10.67;;;;;-144.62;100.00;60556.56;5039560;28;45403;-76
2024/01/25 09:41:23;;;;;;;;;11.00;10.00;;;;;-144.62;100.00;60556.56;5038531;28;45635;-74
2024/01/25 09:43:48;;;;;;;;;9.00;9.00;;;;;-144.62;100.00;60556.56;5054590;28;47138;-77
2024/01/25 09:46:17;;;;;;;;;13.67;9.00;;;;;-144.62;100.00;60556.56;5039843;28;45312;-76
2024/01/25 09:48:45;;;;;;;;;11.67;8.67;;;;;-144.62;100.00;60556.56;5039991;28;45404;-76
2024/01/25 09:51:12;;;;;;;;;12.00;11.00;;;;;-144.62;100.00;60556.56;5040241;28;45204;-76
2024/01/25 09:53:39;;;;;;;;;8.33;8.00;;;;;-144.62;100.00;60556.56;5038669;28;45420;-76
2024/01/25 09:56:12;;;;;;;;;12.33;10.00;;;;;-144.62;100.00;60556.56;5039042;28;45269;-75
2024/01/25 09:58:44;;;;;;;;;11.00;10.00;;;;;-144.62;100.00;60556.56;5027042;28;45317;-76
2024/01/25 10:01:12;;;;;;;;;10.33;9.00;;;;;-144.62;100.00;60556.56;5039762;28;45589;-75
2024/01/25 10:03:43;;;;;;;;;12.67;9.67;;;;;-144.62;100.00;60556.56;5037497;28;46905;-75
2024/01/25 10:06:11;;;;;;;;;11.00;9.00;;;;;-144.62;100.00;60556.56;5037564;28;45287;-75
2024/01/25 10:08:36;;;;;;;;;15.67;12.33;;;;;-144.62;100.00;60556.56;5039919;28;45281;-76
2024/01/25 10:11:02;;;;;;;;;9.33;8.00;;;;;-144.62;100.00;60556.56;5039910;28;45261;-76
2024/01/25 10:13:28;;;;;;;;;16.00;12.33;;;;;-144.62;100.00;60556.56;5038062;28;47607;-76
2024/01/25 10:15:54;;;;;;;;;15.33;11.00;;;;;-144.62;100.00;60556.56;5039606;28;45386;-75
2024/01/25 10:18:22;;;;;;;;;11.67;10.00;;;;;-144.62;100.00;60556.56;5038493;28;45379;-75
2024/01/25 10:20:47;;;;;;;;;13.33;13.33;;;;;-144.62;100.00;60556.56;5040203;28;45315;-76
2024/01/25 10:23:12;;;;;;;;;14.00;13.67;;;;;-144.62;100.00;60556.56;5039191;28;45484;-76
2024/01/25 10:25:38;;;;;;;;;13.67;11.67;;;;;-144.62;100.00;60556.56;5039194;28;45418;-75
2024/01/25 10:28:05;;;;;;;;;14.00;11.00;;;;;-144.62;100.00;60556.56;5055041;28;45320;-75
2024/01/25 10:30:35;;;;;;;;;13.33;11.00;;;;;-144.62;100.00;60556.56;5039540;28;45299;-75
2024/01/25 10:33:01;;;;;;;;;16.67;12.00;;;;;-144.62;100.00;60556.56;5038064;28;45379;-76
2024/01/25 10:35:26;;;;;;;;;10.00;9.00;;;;;-144.62;100.00;60556.56;5053473;28;45867;-75
2024/01/25 10:37:53;;;;;;;;;16.33;11.33;;;;;-144.62;100.00;60556.56;5038296;28;45245;-74
2024/01/25 10:40:19;;;;;;;;;12.00;11.67;;;;;-144.62;100.00;60556.56;5037967;28;45403;-75
2024/01/25 10:42:46;;;;;;;;;9.00;9.00;;;;;-144.62;100.00;60556.56;5037740;28;46833;-75
2024/01/25 10:45:12;;;;;;;;;13.33;11.00;;;;;-144.62;100.00;60556.56;5038269;28;45289;-75
2024/01/25 10:47:37;;;;;;;;;9.67;9.67;;;;;-144.62;100.00;60556.56;5038868;28;45292;-74
2024/01/25 10:50:08;;;;;;;;;12.67;11.33;;;;;-144.62;100.00;60556.56;5033826;28;45285;-74
2024/01/25 10:52:35;;;;;;;;;14.00;11.33;;;;;-144.62;100.00;60556.56;5041169;28;45550;-74
2024/01/25 10:55:03;;;;;;;;;9.67;9.67;;;;;-144.62;100.00;60556.56;5023946;28;45190;-75